No particular awareness of the weather is required.    There are no Weather-warnings


Meteo18 Weather Cam more information Meteo18 Weather Cam


Thunder radar more information blitzortung!


Rain radar more information rain snow radar


Visit our other weather sites:

Template documentation
and downloads

And another site



Weather Underground History page Text

Daily Summary for June 14, 2017 Units:  Both    English   Metric
« Previous Day
Next Day »
Daily Weekly Monthly Yearly Custom
  High: Low: Average:
Temperature: 83.8 °F /  28.8 °C 62.2 °F /  16.8 °C 72.3 °F /  22.4 °C
Dew Point: 69.6 °F /  20.9 °C 55.6 °F /  13.1 °C 62.4 °F /  16.9 °C
Humidity: 89 % 58 % 72 %
Wind Speed: 9 mph /  14.5 km/h - 2.1 mph /  3.4 km/h
Wind Gust: 12 mph /  19.3 km/h - -
Wind:- - East
Pressure: 30.1 in /  1018.2 hPa 30 in /  1014.4 hPa -
Precipitation: 0.01 in /  0.3 mm    
Historical Graphs
 
 
Tabular Data for June 14, 2017
Time Temperature Dew Point Pressure Wind Wind Speed Wind Gust Humidity Rainfall Rate (Hourly)
00:02 65.1 °F /  18.4 °C 57.4 °F /  14.1 °C 30.1 in /  1018.2 hPa NE 1 mph /  1.6 km/h 12 mph /  19.3 km/h 76 % 0 in /  0.0 mm
00:12 64.6 °F /  18.1 °C 57.6 °F /  14.2 °C 30.1 in /  1017.8 hPa NE 4 mph /  6.4 km/h 12 mph /  19.3 km/h 78 % 0.01 in /  0.3 mm
00:17 64.2 °F /  17.9 °C 57.6 °F /  14.2 °C 30.1 in /  1017.8 hPa ENE 6 mph /  9.7 km/h 12 mph /  19.3 km/h 79 % 0.01 in /  0.3 mm
00:22 64 °F /  17.8 °C 57.4 °F /  14.1 °C 30.1 in /  1017.8 hPa NE 3 mph /  4.8 km/h 9 mph /  14.5 km/h 79 % 0.01 in /  0.3 mm
00:27 64 °F /  17.8 °C 57.4 °F /  14.1 °C 30.1 in /  1018.2 hPa Calm   8 mph /  12.9 km/h 79 % 0.01 in /  0.3 mm
00:32 64.2 °F /  17.9 °C 57.2 °F /  14.0 °C 30.1 in /  1017.8 hPa NE 4 mph /  6.4 km/h 8 mph /  12.9 km/h 78 % 0.01 in /  0.3 mm
00:37 64.2 °F /  17.9 °C 57.2 °F /  14.0 °C 30.1 in /  1017.8 hPa East 2 mph /  3.2 km/h 8 mph /  12.9 km/h 78 % 0.01 in /  0.3 mm
00:42 64 °F /  17.8 °C 57.4 °F /  14.1 °C 30.1 in /  1017.5 hPa ENE 3 mph /  4.8 km/h 8 mph /  12.9 km/h 79 % 0.01 in /  0.3 mm
00:52 63.9 °F /  17.7 °C 57.6 °F /  14.2 °C 30 in /  1017.2 hPa NE 2 mph /  3.2 km/h 7 mph /  11.3 km/h 80 % 0.01 in /  0.3 mm
00:57 63.7 °F /  17.6 °C 57.4 °F /  14.1 °C 30 in /  1017.2 hPa NE 5 mph /  8.0 km/h 7 mph /  11.3 km/h 80 % 0.01 in /  0.3 mm
01:02 63.7 °F /  17.6 °C 57 °F /  13.9 °C 30 in /  1017.2 hPa Calm   9 mph /  14.5 km/h 79 % 0.01 in /  0.3 mm
01:07 63.9 °F /  17.7 °C 57.2 °F /  14.0 °C 30 in /  1017.2 hPa NW 2 mph /  3.2 km/h 9 mph /  14.5 km/h 79 % 0 in /  0.0 mm
01:12 63.9 °F /  17.7 °C 56.8 °F /  13.8 °C 30.1 in /  1017.5 hPa NNW 2 mph /  3.2 km/h 8 mph /  12.9 km/h 78 % 0 in /  0.0 mm
01:17 63.9 °F /  17.7 °C 56.5 °F /  13.6 °C 30.1 in /  1017.5 hPa Calm   5 mph /  8.0 km/h 77 % 0 in /  0.0 mm
01:22 63.9 °F /  17.7 °C 56.5 °F /  13.6 °C 30.1 in /  1017.5 hPa NNW 2 mph /  3.2 km/h 3 mph /  4.8 km/h 77 % 0 in /  0.0 mm
01:27 63.7 °F /  17.6 °C 56.3 °F /  13.5 °C 30.1 in /  1017.5 hPa NE 1 mph /  1.6 km/h 3 mph /  4.8 km/h 77 % 0 in /  0.0 mm
01:32 63.5 °F /  17.5 °C 56.1 °F /  13.4 °C 30 in /  1017.2 hPa NE 3 mph /  4.8 km/h 6 mph /  9.7 km/h 77 % 0 in /  0.0 mm
01:37 63.1 °F /  17.3 °C 56.1 °F /  13.4 °C 30 in /  1017.2 hPa ENE 3 mph /  4.8 km/h 7 mph /  11.3 km/h 78 % 0 in /  0.0 mm
01:42 63.1 °F /  17.3 °C 56.1 °F /  13.4 °C 30 in /  1017.2 hPa NNE 4 mph /  6.4 km/h 7 mph /  11.3 km/h 78 % 0 in /  0.0 mm
01:52 63.5 °F /  17.5 °C 55.8 °F /  13.2 °C 30.1 in /  1017.5 hPa NNW 6 mph /  9.7 km/h 8 mph /  12.9 km/h 76 % 0 in /  0.0 mm
01:57 63.7 °F /  17.6 °C 55.9 °F /  13.3 °C 30.1 in /  1017.5 hPa North 4 mph /  6.4 km/h 8 mph /  12.9 km/h 76 % 0 in /  0.0 mm
02:02 63.9 °F /  17.7 °C 55.8 °F /  13.2 °C 30 in /  1017.2 hPa NNE 4 mph /  6.4 km/h 8 mph /  12.9 km/h 75 % 0 in /  0.0 mm
02:07 63.9 °F /  17.7 °C 55.8 °F /  13.2 °C 30 in /  1017.2 hPa NNE 2 mph /  3.2 km/h 8 mph /  12.9 km/h 75 % 0 in /  0.0 mm
02:12 63.9 °F /  17.7 °C 56.1 °F /  13.4 °C 30 in /  1017.2 hPa North 3 mph /  4.8 km/h 7 mph /  11.3 km/h 76 % 0 in /  0.0 mm
02:17 63.7 °F /  17.6 °C 55.9 °F /  13.3 °C 30 in /  1017.2 hPa NNE 7 mph /  11.3 km/h 8 mph /  12.9 km/h 76 % 0 in /  0.0 mm
02:22 63.9 °F /  17.7 °C 56.1 °F /  13.4 °C 30 in /  1017.2 hPa Calm   8 mph /  12.9 km/h 76 % 0 in /  0.0 mm
02:32 63.9 °F /  17.7 °C 55.8 °F /  13.2 °C 30 in /  1017.2 hPa North 1 mph /  1.6 km/h 8 mph /  12.9 km/h 75 % 0 in /  0.0 mm
02:37 64 °F /  17.8 °C 55.6 °F /  13.1 °C 30 in /  1016.8 hPa NNE 1 mph /  1.6 km/h 5 mph /  8.0 km/h 74 % 0 in /  0.0 mm
02:42 64.2 °F /  17.9 °C 55.8 °F /  13.2 °C 30 in /  1016.8 hPa NE 2 mph /  3.2 km/h 4 mph /  6.4 km/h 74 % 0 in /  0.0 mm
02:47 64.6 °F /  18.1 °C 56.1 °F /  13.4 °C 30 in /  1016.8 hPa Calm   5 mph /  8.0 km/h 74 % 0 in /  0.0 mm
02:52 64.6 °F /  18.1 °C 56.1 °F /  13.4 °C 30 in /  1016.8 hPa Calm   5 mph /  8.0 km/h 74 % 0 in /  0.0 mm
02:57 64.6 °F /  18.1 °C 56.1 °F /  13.4 °C 30 in /  1016.8 hPa East 1 mph /  1.6 km/h 5 mph /  8.0 km/h 74 % 0 in /  0.0 mm
03:02 64.6 °F /  18.1 °C 56.1 °F /  13.4 °C 30 in /  1016.5 hPa NE 3 mph /  4.8 km/h 3 mph /  4.8 km/h 74 % 0 in /  0.0 mm
03:17 64.2 °F /  17.9 °C 56.1 °F /  13.4 °C 30 in /  1016.5 hPa Calm   4 mph /  6.4 km/h 75 % 0 in /  0.0 mm
03:22 63.9 °F /  17.7 °C 55.8 °F /  13.2 °C 30 in /  1016.1 hPa Calm   4 mph /  6.4 km/h 75 % 0 in /  0.0 mm
03:32 63.7 °F /  17.6 °C 55.6 °F /  13.1 °C 30 in /  1016.1 hPa Calm   1 mph /  1.6 km/h 75 % 0 in /  0.0 mm
03:37 63.3 °F /  17.4 °C 55.6 °F /  13.1 °C 30 in /  1016.1 hPa NNE 2 mph /  3.2 km/h 2 mph /  3.2 km/h 76 % 0 in /  0.0 mm
03:42 63.5 °F /  17.5 °C 55.8 °F /  13.2 °C 30 in /  1016.1 hPa Calm   4 mph /  6.4 km/h 76 % 0 in /  0.0 mm
03:47 63.3 °F /  17.4 °C 55.6 °F /  13.1 °C 30 in /  1016.1 hPa NNW 1 mph /  1.6 km/h 4 mph /  6.4 km/h 76 % 0 in /  0.0 mm
03:52 63.1 °F /  17.3 °C 55.8 °F /  13.2 °C 30 in /  1016.1 hPa North 2 mph /  3.2 km/h 4 mph /  6.4 km/h 77 % 0 in /  0.0 mm
03:57 62.8 °F /  17.1 °C 55.8 °F /  13.2 °C 30 in /  1016.1 hPa Calm   4 mph /  6.4 km/h 78 % 0 in /  0.0 mm
04:02 62.4 °F /  16.9 °C 55.8 °F /  13.2 °C 30 in /  1016.1 hPa NNW 1 mph /  1.6 km/h 3 mph /  4.8 km/h 79 % 0 in /  0.0 mm
04:07 62.4 °F /  16.9 °C 55.8 °F /  13.2 °C 30 in /  1016.1 hPa Calm   3 mph /  4.8 km/h 79 % 0 in /  0.0 mm
04:12 62.4 °F /  16.9 °C 55.8 °F /  13.2 °C 30 in /  1016.1 hPa Calm   3 mph /  4.8 km/h 79 % 0 in /  0.0 mm
04:17 62.4 °F /  16.9 °C 55.8 °F /  13.2 °C 30 in /  1016.1 hPa NE 2 mph /  3.2 km/h 3 mph /  4.8 km/h 79 % 0 in /  0.0 mm
04:22 62.4 °F /  16.9 °C 55.8 °F /  13.2 °C 30 in /  1016.1 hPa Calm   3 mph /  4.8 km/h 79 % 0 in /  0.0 mm
04:32 62.8 °F /  17.1 °C 55.8 °F /  13.2 °C 30 in /  1016.1 hPa NE 2 mph /  3.2 km/h 3 mph /  4.8 km/h 78 % 0 in /  0.0 mm
04:37 62.8 °F /  17.1 °C 55.8 °F /  13.2 °C 30 in /  1016.1 hPa NE 2 mph /  3.2 km/h 3 mph /  4.8 km/h 78 % 0 in /  0.0 mm
04:42 63 °F /  17.2 °C 55.9 °F /  13.3 °C 30 in /  1016.1 hPa Calm   4 mph /  6.4 km/h 78 % 0 in /  0.0 mm
04:47 63.1 °F /  17.3 °C 56.1 °F /  13.4 °C 30 in /  1016.1 hPa NE 2 mph /  3.2 km/h 6 mph /  9.7 km/h 78 % 0 in /  0.0 mm
04:52 63.1 °F /  17.3 °C 56.1 °F /  13.4 °C 30 in /  1016.1 hPa NNE 1 mph /  1.6 km/h 6 mph /  9.7 km/h 78 % 0 in /  0.0 mm
04:57 63.1 °F /  17.3 °C 55.8 °F /  13.2 °C 30 in /  1016.1 hPa North 3 mph /  4.8 km/h 6 mph /  9.7 km/h 77 % 0 in /  0.0 mm
05:02 63.3 °F /  17.4 °C 55.9 °F /  13.3 °C 30 in /  1016.1 hPa Calm   6 mph /  9.7 km/h 77 % 0 in /  0.0 mm
05:12 63.1 °F /  17.3 °C 55.8 °F /  13.2 °C 30 in /  1016.1 hPa Calm   4 mph /  6.4 km/h 77 % 0 in /  0.0 mm
05:17 63.1 °F /  17.3 °C 56.1 °F /  13.4 °C 30 in /  1016.1 hPa NNE 1 mph /  1.6 km/h 3 mph /  4.8 km/h 78 % 0 in /  0.0 mm
05:22 63.1 °F /  17.3 °C 55.8 °F /  13.2 °C 30 in /  1016.1 hPa Calm   2 mph /  3.2 km/h 77 % 0 in /  0.0 mm
05:27 63.1 °F /  17.3 °C 56.1 °F /  13.4 °C 30 in /  1016.1 hPa NNE 2 mph /  3.2 km/h 2 mph /  3.2 km/h 78 % 0 in /  0.0 mm
05:32 63.1 °F /  17.3 °C 56.1 °F /  13.4 °C 30 in /  1016.1 hPa Calm   2 mph /  3.2 km/h 78 % 0 in /  0.0 mm
05:37 63.1 °F /  17.3 °C 56.5 °F /  13.6 °C 30 in /  1016.1 hPa Calm   4 mph /  6.4 km/h 79 % 0 in /  0.0 mm
05:42 62.8 °F /  17.1 °C 56.5 °F /  13.6 °C 30 in /  1016.1 hPa Calm   4 mph /  6.4 km/h 80 % 0 in /  0.0 mm
05:47 62.8 °F /  17.1 °C 56.1 °F /  13.4 °C 30 in /  1016.1 hPa NNE 1 mph /  1.6 km/h 4 mph /  6.4 km/h 79 % 0 in /  0.0 mm
05:52 62.6 °F /  17.0 °C 55.9 °F /  13.3 °C 30 in /  1016.1 hPa NE 2 mph /  3.2 km/h 2 mph /  3.2 km/h 79 % 0 in /  0.0 mm
05:57 62.8 °F /  17.1 °C 56.1 °F /  13.4 °C 30 in /  1016.1 hPa NNW 1 mph /  1.6 km/h 2 mph /  3.2 km/h 79 % 0 in /  0.0 mm
06:02 62.8 °F /  17.1 °C 56.1 °F /  13.4 °C 30 in /  1016.5 hPa NE 1 mph /  1.6 km/h 4 mph /  6.4 km/h 79 % 0 in /  0.0 mm
06:12 63 °F /  17.2 °C 55.9 °F /  13.3 °C 30 in /  1016.5 hPa NNE 3 mph /  4.8 km/h 4 mph /  6.4 km/h 78 % 0 in /  0.0 mm
06:22 62.8 °F /  17.1 °C 56.1 °F /  13.4 °C 30 in /  1016.5 hPa ENE 1 mph /  1.6 km/h 6 mph /  9.7 km/h 79 % 0 in /  0.0 mm
06:27 62.4 °F /  16.9 °C 56.1 °F /  13.4 °C 30 in /  1016.5 hPa NNE 3 mph /  4.8 km/h 6 mph /  9.7 km/h 80 % 0 in /  0.0 mm
06:32 62.2 °F /  16.8 °C 56.3 °F /  13.5 °C 30 in /  1016.5 hPa ENE 1 mph /  1.6 km/h 5 mph /  8.0 km/h 81 % 0 in /  0.0 mm
06:37 62.4 °F /  16.9 °C 56.1 °F /  13.4 °C 30 in /  1016.5 hPa ENE 2 mph /  3.2 km/h 5 mph /  8.0 km/h 80 % 0 in /  0.0 mm
06:42 62.4 °F /  16.9 °C 56.1 °F /  13.4 °C 30 in /  1016.5 hPa ENE 1 mph /  1.6 km/h 6 mph /  9.7 km/h 80 % 0 in /  0.0 mm
06:52 62.6 °F /  17.0 °C 56.7 °F /  13.7 °C 30 in /  1016.5 hPa NE 1 mph /  1.6 km/h 6 mph /  9.7 km/h 81 % 0 in /  0.0 mm
06:57 62.6 °F /  17.0 °C 56.7 °F /  13.7 °C 30 in /  1016.1 hPa ENE 3 mph /  4.8 km/h 6 mph /  9.7 km/h 81 % 0 in /  0.0 mm
07:02 62.8 °F /  17.1 °C 56.8 °F /  13.8 °C 30 in /  1016.1 hPa ENE 4 mph /  6.4 km/h 4 mph /  6.4 km/h 81 % 0 in /  0.0 mm
07:12 63.3 °F /  17.4 °C 57 °F /  13.9 °C 30 in /  1016.1 hPa Calm   4 mph /  6.4 km/h 80 % 0 in /  0.0 mm
07:17 63.7 °F /  17.6 °C 57.4 °F /  14.1 °C 30 in /  1016.1 hPa Calm   4 mph /  6.4 km/h 80 % 0 in /  0.0 mm
07:22 63.9 °F /  17.7 °C 57.6 °F /  14.2 °C 30 in /  1016.1 hPa Calm   4 mph /  6.4 km/h 80 % 0 in /  0.0 mm
07:27 64 °F /  17.8 °C 58.1 °F /  14.5 °C 30 in /  1016.1 hPa Calm   3 mph /  4.8 km/h 81 % 0 in /  0.0 mm
07:32 64.2 °F /  17.9 °C 58.3 °F /  14.6 °C 30 in /  1016.5 hPa Calm   2 mph /  3.2 km/h 81 % 0 in /  0.0 mm
07:42 64.8 °F /  18.2 °C 58.8 °F /  14.9 °C 30 in /  1016.5 hPa Calm   1 mph /  1.6 km/h 81 % 0 in /  0.0 mm
07:52 66.4 °F /  19.1 °C 59.4 °F /  15.2 °C 30 in /  1016.1 hPa ENE 2 mph /  3.2 km/h 2 mph /  3.2 km/h 78 % 0 in /  0.0 mm
07:57 66.6 °F /  19.2 °C 59.2 °F /  15.1 °C 30 in /  1016.1 hPa ENE 2 mph /  3.2 km/h 2 mph /  3.2 km/h 77 % 0 in /  0.0 mm
08:02 66.9 °F /  19.4 °C 58.8 °F /  14.9 °C 30 in /  1016.1 hPa East 1 mph /  1.6 km/h 3 mph /  4.8 km/h 75 % 0 in /  0.0 mm
08:12 67.5 °F /  19.7 °C 59.5 °F /  15.3 °C 30 in /  1016.1 hPa NE 3 mph /  4.8 km/h 4 mph /  6.4 km/h 76 % 0 in /  0.0 mm
08:17 67.3 °F /  19.6 °C 59.5 °F /  15.3 °C 30 in /  1016.1 hPa NE 3 mph /  4.8 km/h 5 mph /  8.0 km/h 76 % 0 in /  0.0 mm
08:27 67.6 °F /  19.8 °C 59.4 °F /  15.2 °C 30 in /  1016.1 hPa NNW 2 mph /  3.2 km/h 5 mph /  8.0 km/h 75 % 0 in /  0.0 mm
08:32 67.8 °F /  19.9 °C 59.2 °F /  15.1 °C 30 in /  1016.1 hPa ENE 3 mph /  4.8 km/h 5 mph /  8.0 km/h 74 % 0 in /  0.0 mm
08:37 68.4 °F /  20.2 °C 59.7 °F /  15.4 °C 30 in /  1016.1 hPa ENE 5 mph /  8.0 km/h 6 mph /  9.7 km/h 74 % 0 in /  0.0 mm
08:42 68.5 °F /  20.3 °C 59.5 °F /  15.3 °C 30 in /  1016.5 hPa ENE 3 mph /  4.8 km/h 6 mph /  9.7 km/h 73 % 0 in /  0.0 mm
08:47 68.9 °F /  20.5 °C 59.9 °F /  15.5 °C 30 in /  1016.1 hPa ENE 4 mph /  6.4 km/h 7 mph /  11.3 km/h 73 % 0 in /  0.0 mm
08:52 68.7 °F /  20.4 °C 59.7 °F /  15.4 °C 30 in /  1016.1 hPa NNE 2 mph /  3.2 km/h 7 mph /  11.3 km/h 73 % 0 in /  0.0 mm
09:02 68.5 °F /  20.3 °C 59.9 °F /  15.5 °C 30 in /  1016.1 hPa NE 2 mph /  3.2 km/h 8 mph /  12.9 km/h 74 % 0 in /  0.0 mm
09:07 68.5 °F /  20.3 °C 59.5 °F /  15.3 °C 30 in /  1016.1 hPa ENE 3 mph /  4.8 km/h 8 mph /  12.9 km/h 73 % 0 in /  0.0 mm
09:12 68.7 °F /  20.4 °C 60.1 °F /  15.6 °C 30 in /  1016.1 hPa ENE 5 mph /  8.0 km/h 6 mph /  9.7 km/h 74 % 0 in /  0.0 mm
09:17 69.1 °F /  20.6 °C 60.4 °F /  15.8 °C 30 in /  1016.1 hPa ENE 5 mph /  8.0 km/h 6 mph /  9.7 km/h 74 % 0 in /  0.0 mm
09:22 69.4 °F /  20.8 °C 60.4 °F /  15.8 °C 30 in /  1016.1 hPa NE 5 mph /  8.0 km/h 6 mph /  9.7 km/h 73 % 0 in /  0.0 mm
09:32 70 °F /  21.1 °C 61 °F /  16.1 °C 30 in /  1016.5 hPa ENE 6 mph /  9.7 km/h 8 mph /  12.9 km/h 73 % 0 in /  0.0 mm
09:42 70.3 °F /  21.3 °C 61.3 °F /  16.3 °C 30 in /  1016.1 hPa NE 4 mph /  6.4 km/h 8 mph /  12.9 km/h 73 % 0 in /  0.0 mm
09:47 71.1 °F /  21.7 °C 61.2 °F /  16.2 °C 30 in /  1016.1 hPa ENE 9 mph /  14.5 km/h 9 mph /  14.5 km/h 71 % 0 in /  0.0 mm
09:52 71.6 °F /  22.0 °C 61.3 °F /  16.3 °C 30 in /  1016.1 hPa ENE 8 mph /  12.9 km/h 11 mph /  17.7 km/h 70 % 0 in /  0.0 mm
09:57 72 °F /  22.2 °C 61.2 °F /  16.2 °C 30 in /  1016.1 hPa ENE 3 mph /  4.8 km/h 11 mph /  17.7 km/h 69 % 0 in /  0.0 mm
10:02 72.1 °F /  22.3 °C 61.3 °F /  16.3 °C 30 in /  1016.1 hPa ENE 5 mph /  8.0 km/h 11 mph /  17.7 km/h 69 % 0 in /  0.0 mm
10:07 72.7 °F /  22.6 °C 61.5 °F /  16.4 °C 30 in /  1016.1 hPa ENE 5 mph /  8.0 km/h 10 mph /  16.1 km/h 68 % 0 in /  0.0 mm
10:12 73.2 °F /  22.9 °C 62.4 °F /  16.9 °C 30 in /  1016.5 hPa NNE 3 mph /  4.8 km/h 10 mph /  16.1 km/h 69 % 0 in /  0.0 mm
10:22 73.6 °F /  23.1 °C 61.9 °F /  16.6 °C 30 in /  1016.5 hPa East 4 mph /  6.4 km/h 9 mph /  14.5 km/h 67 % 0 in /  0.0 mm
10:27 73.8 °F /  23.2 °C 62.1 °F /  16.7 °C 30 in /  1016.5 hPa ENE 2 mph /  3.2 km/h 8 mph /  12.9 km/h 67 % 0 in /  0.0 mm
10:32 73.9 °F /  23.3 °C 61.9 °F /  16.6 °C 30 in /  1016.5 hPa East 3 mph /  4.8 km/h 7 mph /  11.3 km/h 66 % 0 in /  0.0 mm
10:37 74.3 °F /  23.5 °C 63.1 °F /  17.3 °C 30 in /  1016.5 hPa ENE 3 mph /  4.8 km/h 7 mph /  11.3 km/h 68 % 0 in /  0.0 mm
10:42 74.8 °F /  23.8 °C 62.8 °F /  17.1 °C 30 in /  1016.5 hPa East 5 mph /  8.0 km/h 7 mph /  11.3 km/h 66 % 0 in /  0.0 mm
10:47 75 °F /  23.9 °C 63 °F /  17.2 °C 30 in /  1016.1 hPa East 5 mph /  8.0 km/h 7 mph /  11.3 km/h 66 % 0 in /  0.0 mm
10:52 75 °F /  23.9 °C 63 °F /  17.2 °C 30 in /  1016.1 hPa East 4 mph /  6.4 km/h 11 mph /  17.7 km/h 66 % 0 in /  0.0 mm
10:57 75.2 °F /  24.0 °C 63.1 °F /  17.3 °C 30 in /  1016.5 hPa ENE 7 mph /  11.3 km/h 11 mph /  17.7 km/h 66 % 0 in /  0.0 mm
11:02 75.4 °F /  24.1 °C 63.7 °F /  17.6 °C 30 in /  1016.5 hPa East 6 mph /  9.7 km/h 11 mph /  17.7 km/h 67 % 0 in /  0.0 mm
11:12 75.9 °F /  24.4 °C 64.2 °F /  17.9 °C 30 in /  1016.5 hPa NE 2 mph /  3.2 km/h 12 mph /  19.3 km/h 67 % 0 in /  0.0 mm
11:17 76.1 °F /  24.5 °C 63.9 °F /  17.7 °C 30 in /  1016.5 hPa ENE 5 mph /  8.0 km/h 12 mph /  19.3 km/h 66 % 0 in /  0.0 mm
11:22 75.9 °F /  24.4 °C 64.2 °F /  17.9 °C 30 in /  1016.5 hPa ENE 2 mph /  3.2 km/h 9 mph /  14.5 km/h 67 % 0 in /  0.0 mm
11:32 76.3 °F /  24.6 °C 64.6 °F /  18.1 °C 30 in /  1016.1 hPa ENE 5 mph /  8.0 km/h 8 mph /  12.9 km/h 67 % 0 in /  0.0 mm
11:42 75.9 °F /  24.4 °C 64.2 °F /  17.9 °C 30 in /  1016.5 hPa ENE 2 mph /  3.2 km/h 7 mph /  11.3 km/h 67 % 0 in /  0.0 mm
11:47 75.9 °F /  24.4 °C 64.9 °F /  18.3 °C 30 in /  1016.5 hPa ENE 1 mph /  1.6 km/h 8 mph /  12.9 km/h 69 % 0 in /  0.0 mm
11:52 76.3 °F /  24.6 °C 65.3 °F /  18.5 °C 30 in /  1016.5 hPa East 2 mph /  3.2 km/h 8 mph /  12.9 km/h 69 % 0 in /  0.0 mm
12:02 76.3 °F /  24.6 °C 64.9 °F /  18.3 °C 30 in /  1016.5 hPa ENE 3 mph /  4.8 km/h 6 mph /  9.7 km/h 68 % 0 in /  0.0 mm
12:12 76.3 °F /  24.6 °C 65.8 °F /  18.8 °C 30 in /  1016.5 hPa East 2 mph /  3.2 km/h 6 mph /  9.7 km/h 70 % 0 in /  0.0 mm
12:17 76.1 °F /  24.5 °C 64.8 °F /  18.2 °C 30 in /  1016.5 hPa ENE 3 mph /  4.8 km/h 6 mph /  9.7 km/h 68 % 0 in /  0.0 mm
12:22 76.1 °F /  24.5 °C 64.8 °F /  18.2 °C 30 in /  1016.5 hPa ENE 3 mph /  4.8 km/h 6 mph /  9.7 km/h 68 % 0 in /  0.0 mm
12:27 76.3 °F /  24.6 °C 65.3 °F /  18.5 °C 30 in /  1016.5 hPa ENE 3 mph /  4.8 km/h 6 mph /  9.7 km/h 69 % 0 in /  0.0 mm
12:32 76.3 °F /  24.6 °C 64.9 °F /  18.3 °C 30 in /  1016.5 hPa East 2 mph /  3.2 km/h 6 mph /  9.7 km/h 68 % 0 in /  0.0 mm
12:42 76.5 °F /  24.7 °C 65.1 °F /  18.4 °C 30 in /  1016.5 hPa ENE 4 mph /  6.4 km/h 4 mph /  6.4 km/h 68 % 0 in /  0.0 mm
12:47 76.6 °F /  24.8 °C 65.3 °F /  18.5 °C 30 in /  1016.1 hPa East 4 mph /  6.4 km/h 5 mph /  8.0 km/h 68 % 0 in /  0.0 mm
12:52 76.8 °F /  24.9 °C 64.9 °F /  18.3 °C 30 in /  1016.1 hPa ENE 2 mph /  3.2 km/h 5 mph /  8.0 km/h 67 % 0 in /  0.0 mm
12:57 77.2 °F /  25.1 °C 65.3 °F /  18.5 °C 30 in /  1016.1 hPa ENE 1 mph /  1.6 km/h 5 mph /  8.0 km/h 67 % 0 in /  0.0 mm
13:02 77.4 °F /  25.2 °C 65.1 °F /  18.4 °C 30 in /  1016.1 hPa NE 4 mph /  6.4 km/h 6 mph /  9.7 km/h 66 % 0 in /  0.0 mm
13:07 77.4 °F /  25.2 °C 65.1 °F /  18.4 °C 30 in /  1016.1 hPa ENE 4 mph /  6.4 km/h 7 mph /  11.3 km/h 66 % 0 in /  0.0 mm
13:12 77.5 °F /  25.3 °C 65.7 °F /  18.7 °C 30 in /  1016.1 hPa NNW 3 mph /  4.8 km/h 7 mph /  11.3 km/h 67 % 0 in /  0.0 mm
13:17 77.9 °F /  25.5 °C 65.1 °F /  18.4 °C 30 in /  1016.1 hPa NE 4 mph /  6.4 km/h 7 mph /  11.3 km/h 65 % 0 in /  0.0 mm
13:22 78.1 °F /  25.6 °C 65.3 °F /  18.5 °C 30 in /  1016.1 hPa ENE 5 mph /  8.0 km/h 8 mph /  12.9 km/h 65 % 0 in /  0.0 mm
13:32 78.6 °F /  25.9 °C 65.5 °F /  18.6 °C 30 in /  1016.1 hPa ENE 7 mph /  11.3 km/h 8 mph /  12.9 km/h 64 % 0 in /  0.0 mm
13:37 78.6 °F /  25.9 °C 65.5 °F /  18.6 °C 30 in /  1016.1 hPa ENE 3 mph /  4.8 km/h 11 mph /  17.7 km/h 64 % 0 in /  0.0 mm
13:42 79 °F /  26.1 °C 65.8 °F /  18.8 °C 30 in /  1016.1 hPa East 7 mph /  11.3 km/h 11 mph /  17.7 km/h 64 % 0 in /  0.0 mm
13:52 79.3 °F /  26.3 °C 66 °F /  18.9 °C 30 in /  1015.8 hPa North 2 mph /  3.2 km/h 9 mph /  14.5 km/h 64 % 0 in /  0.0 mm
13:57 79.2 °F /  26.2 °C 65.8 °F /  18.8 °C 30 in /  1015.8 hPa NE 3 mph /  4.8 km/h 9 mph /  14.5 km/h 64 % 0 in /  0.0 mm
14:02 79.2 °F /  26.2 °C 65.5 °F /  18.6 °C 30 in /  1016.1 hPa North 2 mph /  3.2 km/h 8 mph /  12.9 km/h 63 % 0 in /  0.0 mm
14:07 79.3 °F /  26.3 °C 65.7 °F /  18.7 °C 30 in /  1016.1 hPa ENE 4 mph /  6.4 km/h 8 mph /  12.9 km/h 63 % 0 in /  0.0 mm
14:12 79.2 °F /  26.2 °C 65.5 °F /  18.6 °C 30 in /  1016.1 hPa NNE 3 mph /  4.8 km/h 8 mph /  12.9 km/h 63 % 0 in /  0.0 mm
14:22 79.3 °F /  26.3 °C 65.7 °F /  18.7 °C 30 in /  1015.8 hPa ENE 5 mph /  8.0 km/h 9 mph /  14.5 km/h 63 % 0 in /  0.0 mm
14:27 79.3 °F /  26.3 °C 66.6 °F /  19.2 °C 30 in /  1015.8 hPa NE 6 mph /  9.7 km/h 9 mph /  14.5 km/h 65 % 0 in /  0.0 mm
14:32 79.7 °F /  26.5 °C 66.4 °F /  19.1 °C 30 in /  1015.8 hPa NE 3 mph /  4.8 km/h 9 mph /  14.5 km/h 64 % 0 in /  0.0 mm
14:37 80.1 °F /  26.7 °C 66.4 °F /  19.1 °C 30 in /  1015.8 hPa NE 2 mph /  3.2 km/h 9 mph /  14.5 km/h 63 % 0 in /  0.0 mm
14:42 80.2 °F /  26.8 °C 66.6 °F /  19.2 °C 30 in /  1015.8 hPa North 4 mph /  6.4 km/h 9 mph /  14.5 km/h 63 % 0 in /  0.0 mm
14:47 80.2 °F /  26.8 °C 66.6 °F /  19.2 °C 30 in /  1015.8 hPa NNE 5 mph /  8.0 km/h 10 mph /  16.1 km/h 63 % 0 in /  0.0 mm
14:52 80.2 °F /  26.8 °C 66.6 °F /  19.2 °C 30 in /  1015.8 hPa NNE 4 mph /  6.4 km/h 10 mph /  16.1 km/h 63 % 0 in /  0.0 mm
14:57 80.2 °F /  26.8 °C 66.6 °F /  19.2 °C 30 in /  1015.8 hPa NE 3 mph /  4.8 km/h 10 mph /  16.1 km/h 63 % 0 in /  0.0 mm
15:02 80.4 °F /  26.9 °C 66.7 °F /  19.3 °C 30 in /  1015.8 hPa ENE 4 mph /  6.4 km/h 7 mph /  11.3 km/h 63 % 0 in /  0.0 mm
15:07 80.4 °F /  26.9 °C 66.7 °F /  19.3 °C 30 in /  1015.8 hPa East 2 mph /  3.2 km/h 8 mph /  12.9 km/h 63 % 0 in /  0.0 mm
15:12 80.4 °F /  26.9 °C 66.7 °F /  19.3 °C 30 in /  1015.8 hPa ENE 4 mph /  6.4 km/h 8 mph /  12.9 km/h 63 % 0 in /  0.0 mm
15:17 80.4 °F /  26.9 °C 66.2 °F /  19.0 °C 30 in /  1015.8 hPa ENE 2 mph /  3.2 km/h 8 mph /  12.9 km/h 62 % 0 in /  0.0 mm
15:22 80.4 °F /  26.9 °C 66.2 °F /  19.0 °C 30 in /  1015.8 hPa ENE 3 mph /  4.8 km/h 6 mph /  9.7 km/h 62 % 0 in /  0.0 mm
15:27 80.4 °F /  26.9 °C 66.7 °F /  19.3 °C 30 in /  1015.8 hPa ENE 4 mph /  6.4 km/h 9 mph /  14.5 km/h 63 % 0 in /  0.0 mm
15:32 80.4 °F /  26.9 °C 65.7 °F /  18.7 °C 30 in /  1015.8 hPa East 2 mph /  3.2 km/h 9 mph /  14.5 km/h 61 % 0 in /  0.0 mm
15:37 80.6 °F /  27.0 °C 66.4 °F /  19.1 °C 30 in /  1015.8 hPa ENE 1 mph /  1.6 km/h 9 mph /  14.5 km/h 62 % 0 in /  0.0 mm
15:42 80.8 °F /  27.1 °C 66 °F /  18.9 °C 30 in /  1015.8 hPa NE 2 mph /  3.2 km/h 6 mph /  9.7 km/h 61 % 0 in /  0.0 mm
15:47 80.6 °F /  27.0 °C 65.5 °F /  18.6 °C 30 in /  1015.8 hPa NNE 4 mph /  6.4 km/h 5 mph /  8.0 km/h 60 % 0 in /  0.0 mm
15:52 80.8 °F /  27.1 °C 65.7 °F /  18.7 °C 30 in /  1015.8 hPa ENE 2 mph /  3.2 km/h 6 mph /  9.7 km/h 60 % 0 in /  0.0 mm
15:57 81 °F /  27.2 °C 66.2 °F /  19.0 °C 30 in /  1015.8 hPa ENE 1 mph /  1.6 km/h 6 mph /  9.7 km/h 61 % 0 in /  0.0 mm
16:02 81.1 °F /  27.3 °C 66 °F /  18.9 °C 30 in /  1015.8 hPa ENE 2 mph /  3.2 km/h 5 mph /  8.0 km/h 60 % 0 in /  0.0 mm
16:12 80.8 °F /  27.1 °C 66 °F /  18.9 °C 30 in /  1015.8 hPa East 1 mph /  1.6 km/h 5 mph /  8.0 km/h 61 % 0 in /  0.0 mm
16:17 81.1 °F /  27.3 °C 67.3 °F /  19.6 °C 30 in /  1015.8 hPa ENE 2 mph /  3.2 km/h 5 mph /  8.0 km/h 63 % 0 in /  0.0 mm
16:22 80.8 °F /  27.1 °C 65.7 °F /  18.7 °C 30 in /  1015.8 hPa Calm   5 mph /  8.0 km/h 60 % 0 in /  0.0 mm
16:32 81.1 °F /  27.3 °C 65.5 °F /  18.6 °C 30 in /  1015.5 hPa Calm   5 mph /  8.0 km/h 59 % 0 in /  0.0 mm
16:37 81.1 °F /  27.3 °C 66 °F /  18.9 °C 30 in /  1015.5 hPa Calm   3 mph /  4.8 km/h 60 % 0 in /  0.0 mm
16:42 81.3 °F /  27.4 °C 66.6 °F /  19.2 °C 30 in /  1015.5 hPa NE 3 mph /  4.8 km/h 3 mph /  4.8 km/h 61 % 0 in /  0.0 mm
16:52 80.4 °F /  26.9 °C 67.1 °F /  19.5 °C 30 in /  1015.5 hPa NNE 4 mph /  6.4 km/h 7 mph /  11.3 km/h 64 % 0 in /  0.0 mm
16:57 80.2 °F /  26.8 °C 67.5 °F /  19.7 °C 30 in /  1015.5 hPa North 4 mph /  6.4 km/h 7 mph /  11.3 km/h 65 % 0 in /  0.0 mm
17:02 80.1 °F /  26.7 °C 67.6 °F /  19.8 °C 30 in /  1015.5 hPa NNE 5 mph /  8.0 km/h 7 mph /  11.3 km/h 66 % 0 in /  0.0 mm
17:12 80.1 °F /  26.7 °C 67.3 °F /  19.6 °C 30 in /  1015.1 hPa NE 5 mph /  8.0 km/h 6 mph /  9.7 km/h 65 % 0 in /  0.0 mm
17:17 80.1 °F /  26.7 °C 67.3 °F /  19.6 °C 30 in /  1015.1 hPa NE 1 mph /  1.6 km/h 7 mph /  11.3 km/h 65 % 0 in /  0.0 mm
17:22 80.1 °F /  26.7 °C 66.7 °F /  19.3 °C 30 in /  1015.1 hPa NE 1 mph /  1.6 km/h 7 mph /  11.3 km/h 64 % 0 in /  0.0 mm
17:32 80.1 °F /  26.7 °C 67.3 °F /  19.6 °C 30 in /  1015.1 hPa NE 5 mph /  8.0 km/h 7 mph /  11.3 km/h 65 % 0 in /  0.0 mm
17:42 80.4 °F /  26.9 °C 67.1 °F /  19.5 °C 30 in /  1015.1 hPa East 5 mph /  8.0 km/h 6 mph /  9.7 km/h 64 % 0 in /  0.0 mm
17:52 80.6 °F /  27.0 °C 66.4 °F /  19.1 °C 30 in /  1015.1 hPa NE 1 mph /  1.6 km/h 7 mph /  11.3 km/h 62 % 0 in /  0.0 mm
17:57 80.8 °F /  27.1 °C 66.6 °F /  19.2 °C 30 in /  1014.8 hPa NE 3 mph /  4.8 km/h 7 mph /  11.3 km/h 62 % 0 in /  0.0 mm
18:02 81.1 °F /  27.3 °C 66.9 °F /  19.4 °C 30 in /  1014.8 hPa ENE 3 mph /  4.8 km/h 7 mph /  11.3 km/h 62 % 0 in /  0.0 mm
18:07 81 °F /  27.2 °C 66.7 °F /  19.3 °C 30 in /  1014.8 hPa NE 2 mph /  3.2 km/h 7 mph /  11.3 km/h 62 % 0 in /  0.0 mm
18:12 81 °F /  27.2 °C 65.8 °F /  18.8 °C 30 in /  1014.8 hPa Calm   7 mph /  11.3 km/h 60 % 0 in /  0.0 mm
18:17 81.1 °F /  27.3 °C 66 °F /  18.9 °C 30 in /  1014.4 hPa Calm   7 mph /  11.3 km/h 60 % 0 in /  0.0 mm
18:22 82.2 °F /  27.9 °C 66.9 °F /  19.4 °C 30 in /  1014.4 hPa SE 1 mph /  1.6 km/h 7 mph /  11.3 km/h 60 % 0 in /  0.0 mm
18:27 82.2 °F /  27.9 °C 66 °F /  18.9 °C 30 in /  1014.4 hPa ENE 3 mph /  4.8 km/h 4 mph /  6.4 km/h 58 % 0 in /  0.0 mm
18:32 82 °F /  27.8 °C 66.4 °F /  19.1 °C 30 in /  1014.4 hPa ESE 1 mph /  1.6 km/h 5 mph /  8.0 km/h 59 % 0 in /  0.0 mm
18:42 83.1 °F /  28.4 °C 66.7 °F /  19.3 °C 30 in /  1014.8 hPa North 2 mph /  3.2 km/h 5 mph /  8.0 km/h 58 % 0 in /  0.0 mm
18:52 82.8 °F /  28.2 °C 66.9 °F /  19.4 °C 30 in /  1014.8 hPa East 2 mph /  3.2 km/h 6 mph /  9.7 km/h 59 % 0 in /  0.0 mm
19:02 82.2 °F /  27.9 °C 66.9 °F /  19.4 °C 30 in /  1014.8 hPa ENE 4 mph /  6.4 km/h 8 mph /  12.9 km/h 60 % 0 in /  0.0 mm
19:12 81.7 °F /  27.6 °C 67.5 °F /  19.7 °C 30 in /  1015.1 hPa ENE 2 mph /  3.2 km/h 7 mph /  11.3 km/h 62 % 0 in /  0.0 mm
19:17 81.7 °F /  27.6 °C 67.8 °F /  19.9 °C 30 in /  1015.1 hPa East 2 mph /  3.2 km/h 6 mph /  9.7 km/h 63 % 0 in /  0.0 mm
19:22 81.9 °F /  27.7 °C 68 °F /  20.0 °C 30 in /  1015.1 hPa ENE 3 mph /  4.8 km/h 6 mph /  9.7 km/h 63 % 0 in /  0.0 mm
19:27 81.7 °F /  27.6 °C 67.5 °F /  19.7 °C 30 in /  1015.1 hPa East 1 mph /  1.6 km/h 6 mph /  9.7 km/h 62 % 0 in /  0.0 mm
19:32 82 °F /  27.8 °C 67.6 °F /  19.8 °C 30 in /  1015.5 hPa ENE 1 mph /  1.6 km/h 6 mph /  9.7 km/h 62 % 0 in /  0.0 mm
19:37 82.2 °F /  27.9 °C 67.5 °F /  19.7 °C 30 in /  1015.5 hPa SE 1 mph /  1.6 km/h 5 mph /  8.0 km/h 61 % 0 in /  0.0 mm
19:47 83.1 °F /  28.4 °C 67.8 °F /  19.9 °C 30 in /  1015.5 hPa Calm   2 mph /  3.2 km/h 60 % 0 in /  0.0 mm
19:52 83.8 °F /  28.8 °C 68.5 °F /  20.3 °C 30 in /  1015.5 hPa Calm   2 mph /  3.2 km/h 60 % 0 in /  0.0 mm
19:57 83.7 °F /  28.7 °C 68.4 °F /  20.2 °C 30 in /  1015.5 hPa Calm   1 mph /  1.6 km/h 60 % 0 in /  0.0 mm
20:02 83.3 °F /  28.5 °C 68 °F /  20.0 °C 30 in /  1015.5 hPa Calm   2 mph /  3.2 km/h 60 % 0 in /  0.0 mm
20:07 83.7 °F /  28.7 °C 68.4 °F /  20.2 °C 30 in /  1015.5 hPa Calm   2 mph /  3.2 km/h 60 % 0 in /  0.0 mm
20:12 83.5 °F /  28.6 °C 68.2 °F /  20.1 °C 30 in /  1015.5 hPa SSE 1 mph /  1.6 km/h 3 mph /  4.8 km/h 60 % 0 in /  0.0 mm
20:17 82.9 °F /  28.3 °C 68.2 °F /  20.1 °C 30 in /  1015.5 hPa Calm   3 mph /  4.8 km/h 61 % 0 in /  0.0 mm
20:22 82.8 °F /  28.2 °C 68.4 °F /  20.2 °C 30 in /  1015.5 hPa SE 1 mph /  1.6 km/h 3 mph /  4.8 km/h 62 % 0 in /  0.0 mm
20:27 82.6 °F /  28.1 °C 68.7 °F /  20.4 °C 30 in /  1015.5 hPa Calm   3 mph /  4.8 km/h 63 % 0 in /  0.0 mm
20:37 81.3 °F /  27.4 °C 68.9 °F /  20.5 °C 30 in /  1015.5 hPa Calm   3 mph /  4.8 km/h 66 % 0 in /  0.0 mm
20:42 81.1 °F /  27.3 °C 69.1 °F /  20.6 °C 30 in /  1015.5 hPa Calm   3 mph /  4.8 km/h 67 % 0 in /  0.0 mm
20:52 81 °F /  27.2 °C 69.4 °F /  20.8 °C 30 in /  1015.5 hPa Calm   1 mph /  1.6 km/h 68 % 0 in /  0.0 mm
20:57 80.8 °F /  27.1 °C 69.6 °F /  20.9 °C 30 in /  1015.5 hPa Calm   1 mph /  1.6 km/h 69 % 0 in /  0.0 mm
21:02 80.1 °F /  26.7 °C 69.4 °F /  20.8 °C 30 in /  1015.5 hPa Calm     70 % 0 in /  0.0 mm
21:07 79.3 °F /  26.3 °C 69.1 °F /  20.6 °C 30 in /  1015.8 hPa ESE 3 mph /  4.8 km/h 4 mph /  6.4 km/h 71 % 0 in /  0.0 mm
21:12 77.9 °F /  25.5 °C 68.9 °F /  20.5 °C 30 in /  1015.8 hPa ESE 2 mph /  3.2 km/h 5 mph /  8.0 km/h 74 % 0 in /  0.0 mm
21:17 77 °F /  25.0 °C 68.5 °F /  20.3 °C 30 in /  1015.8 hPa Calm   5 mph /  8.0 km/h 75 % 0 in /  0.0 mm
21:22 76.6 °F /  24.8 °C 68.5 °F /  20.3 °C 30 in /  1015.8 hPa Calm   5 mph /  8.0 km/h 76 % 0 in /  0.0 mm
21:32 75.7 °F /  24.3 °C 67.6 °F /  19.8 °C 30 in /  1015.8 hPa SE 1 mph /  1.6 km/h 4 mph /  6.4 km/h 76 % 0 in /  0.0 mm
21:37 75.4 °F /  24.1 °C 67.6 °F /  19.8 °C 30 in /  1015.8 hPa Calm   2 mph /  3.2 km/h 77 % 0 in /  0.0 mm
21:42 74.7 °F /  23.7 °C 67.3 °F /  19.6 °C 30 in /  1015.8 hPa Calm   2 mph /  3.2 km/h 78 % 0 in /  0.0 mm
21:52 73.9 °F /  23.3 °C 67.1 °F /  19.5 °C 30 in /  1016.1 hPa Calm   1 mph /  1.6 km/h 79 % 0 in /  0.0 mm
21:57 73.6 °F /  23.1 °C 67.1 °F /  19.5 °C 30 in /  1016.1 hPa Calm     80 % 0 in /  0.0 mm
22:02 73 °F /  22.8 °C 66.6 °F /  19.2 °C 30 in /  1016.1 hPa Calm   1 mph /  1.6 km/h 80 % 0 in /  0.0 mm
22:07 72.7 °F /  22.6 °C 66.6 °F /  19.2 °C 30 in /  1016.1 hPa Calm   1 mph /  1.6 km/h 81 % 0 in /  0.0 mm
22:12 72.3 °F /  22.4 °C 66.6 °F /  19.2 °C 30 in /  1016.1 hPa Calm   1 mph /  1.6 km/h 82 % 0 in /  0.0 mm
22:17 72 °F /  22.2 °C 66.2 °F /  19.0 °C 30 in /  1016.5 hPa Calm     82 % 0 in /  0.0 mm
22:22 71.8 °F /  22.1 °C 66.4 °F /  19.1 °C 30 in /  1016.5 hPa Calm     83 % 0 in /  0.0 mm
22:32 71.6 °F /  22.0 °C 66.6 °F /  19.2 °C 30 in /  1016.5 hPa SW 2 mph /  3.2 km/h 3 mph /  4.8 km/h 84 % 0 in /  0.0 mm
22:37 71.4 °F /  21.9 °C 66.4 °F /  19.1 °C 30 in /  1016.5 hPa SSW 1 mph /  1.6 km/h 3 mph /  4.8 km/h 84 % 0 in /  0.0 mm
22:42 71.4 °F /  21.9 °C 66.4 °F /  19.1 °C 30 in /  1016.5 hPa SSW 1 mph /  1.6 km/h 3 mph /  4.8 km/h 84 % 0 in /  0.0 mm
22:52 70.9 °F /  21.6 °C 66.2 °F /  19.0 °C 30 in /  1016.5 hPa Calm   2 mph /  3.2 km/h 85 % 0 in /  0.0 mm
22:57 70.7 °F /  21.5 °C 66 °F /  18.9 °C 30 in /  1016.5 hPa Calm   2 mph /  3.2 km/h 85 % 0 in /  0.0 mm
23:02 70.5 °F /  21.4 °C 65.8 °F /  18.8 °C 30 in /  1016.5 hPa Calm   1 mph /  1.6 km/h 85 % 0 in /  0.0 mm
23:07 70.3 °F /  21.3 °C 65.7 °F /  18.7 °C 30 in /  1016.5 hPa Calm   1 mph /  1.6 km/h 85 % 0 in /  0.0 mm
23:12 70 °F /  21.1 °C 65.3 °F /  18.5 °C 30 in /  1016.5 hPa Calm   1 mph /  1.6 km/h 85 % 0 in /  0.0 mm
23:17 69.6 °F /  20.9 °C 65.3 °F /  18.5 °C 30 in /  1016.5 hPa Calm   1 mph /  1.6 km/h 86 % 0 in /  0.0 mm
23:22 69.4 °F /  20.8 °C 65.1 °F /  18.4 °C 30 in /  1016.5 hPa Calm   1 mph /  1.6 km/h 86 % 0 in /  0.0 mm
23:32 68.9 °F /  20.5 °C 64.9 °F /  18.3 °C 30 in /  1016.5 hPa Calm   1 mph /  1.6 km/h 87 % 0 in /  0.0 mm
23:37 68.5 °F /  20.3 °C 64.8 °F /  18.2 °C 30 in /  1016.5 hPa Calm   1 mph /  1.6 km/h 88 % 0 in /  0.0 mm
23:42 68.4 °F /  20.2 °C 64.9 °F /  18.3 °C 30 in /  1016.5 hPa Calm   1 mph /  1.6 km/h 89 % 0 in /  0.0 mm
23:47 68.4 °F /  20.2 °C 64.9 °F /  18.3 °C 30 in /  1016.5 hPa Calm   1 mph /  1.6 km/h 89 % 0 in /  0.0 mm
23:57 68.2 °F /  20.1 °C 64.8 °F /  18.2 °C 30 in /  1016.5 hPa Calm     89 % 0 in /  0.0 mm
Meteo18
Compliments of Weather Underground - 4 mb

Script developed by  Jim McMurry - jmcmurry@mwt.net Adapted for the template by  Wim van der Kuil - Leuven-Template.eu

You find our weather info also at:

European Weather Network

Weather Underground

Equipment we use:

Weather-station
Davis Vue

Weather-program
Meteohub

Weather-server
Raspberry PI 2 B+

Provider
1 and 1

Davis Vue

Meteohub

Raspberry PI 2 B+

1 and 1